createdAt,value
2019-04-07T00:00:38.148Z,21.47
2019-04-07T00:03:06.917Z,22.17
2019-04-07T00:05:35.675Z,21.00
2019-04-07T00:08:05.703Z,20.30
2019-04-07T00:10:34.619Z,22.13
2019-04-07T00:13:03.288Z,21.17
2019-04-07T00:15:32.111Z,23.35
2019-04-07T00:18:00.815Z,21.43
2019-04-07T00:20:29.644Z,20.80
2019-04-07T00:22:58.688Z,20.80
2019-04-07T00:25:27.669Z,19.67
2019-04-07T00:27:56.253Z,20.23
2019-04-07T00:30:24.811Z,22.40
2019-04-07T00:32:53.491Z,22.23
2019-04-07T00:35:29.152Z,22.13
2019-04-07T00:37:52.877Z,24.05
2019-04-07T00:40:22.324Z,22.83
2019-04-07T00:42:50.998Z,21.43
2019-04-07T00:45:19.570Z,21.57
2019-04-07T00:47:48.206Z,21.77
2019-04-07T00:50:16.922Z,19.43
2019-04-07T00:52:45.595Z,19.53
2019-04-07T00:55:14.326Z,21.97
2019-04-07T00:57:43.030Z,21.03
2019-04-07T01:00:13.377Z,20.73
2019-04-07T01:02:42.868Z,21.80
2019-04-07T01:05:12.661Z,26.03
2019-04-07T01:07:42.009Z,23.97
2019-04-07T01:10:10.970Z,22.70
2019-04-07T01:12:39.966Z,22.67
2019-04-07T01:15:09.898Z,21.87
2019-04-07T01:17:39.151Z,22.07
2019-04-07T01:20:09.015Z,23.23
2019-04-07T01:22:37.563Z,26.20
2019-04-07T01:25:08.328Z,27.00
2019-04-07T01:27:37.471Z,25.63
2019-04-07T01:30:07.258Z,26.93
2019-04-07T01:32:35.806Z,28.98
2019-04-07T01:35:05.811Z,27.63
2019-04-07T01:37:34.375Z,26.07
2019-04-07T01:40:03.180Z,28.73
2019-04-07T01:42:39.004Z,27.17
2019-04-07T01:45:15.530Z,24.07
2019-04-07T01:47:54.936Z,26.87
2019-04-07T01:50:31.332Z,21.57
2019-04-07T01:53:21.317Z,24.13
2019-04-07T01:56:05.385Z,22.30
2019-04-07T01:58:41.934Z,23.27
2019-04-07T02:01:24.683Z,23.60
2019-04-07T02:04:11.632Z,22.20
2019-04-07T02:06:48.913Z,22.90
2019-04-07T02:09:27.985Z,25.10
2019-04-07T02:11:58.466Z,24.30
2019-04-07T02:14:31.257Z,23.40
2019-04-07T02:17:07.112Z,23.17
2019-04-07T02:19:53.645Z,23.57
2019-04-07T02:22:34.386Z,22.17
2019-04-07T02:25:13.066Z,22.13
2019-04-07T02:27:46.658Z,22.20
2019-04-07T02:30:23.724Z,22.03
2019-04-07T02:32:58.280Z,22.37
2019-04-07T02:35:34.577Z,22.00
2019-04-07T02:38:04.801Z,22.13
2019-04-07T02:40:35.091Z,22.10
2019-04-07T02:43:21.442Z,21.17
2019-04-07T02:45:54.372Z,22.63
2019-04-07T02:48:36.618Z,23.30
2019-04-07T02:51:07.646Z,24.67
2019-04-07T02:53:44.090Z,23.97
2019-04-07T02:56:15.184Z,23.47
2019-04-07T02:58:51.539Z,21.63
2019-04-07T03:01:37.059Z,22.63
2019-04-07T03:04:07.523Z,20.63
2019-04-07T03:06:48.389Z,22.80
2019-04-07T03:09:21.883Z,22.73
2019-04-07T03:11:55.175Z,21.67
2019-04-07T03:14:26.274Z,22.10
2019-04-07T03:16:56.607Z,20.77
2019-04-07T03:19:29.870Z,21.37
2019-04-07T03:22:02.858Z,23.00
2019-04-07T03:24:51.773Z,25.75
2019-04-07T03:27:22.423Z,22.97
2019-04-07T03:29:55.439Z,21.93
2019-04-07T03:32:37.511Z,22.33
2019-04-07T03:35:12.675Z,20.67
2019-04-07T03:37:47.528Z,20.93
2019-04-07T03:40:18.384Z,22.87
2019-04-07T03:42:55.280Z,21.33
2019-04-07T03:45:26.492Z,22.73
2019-04-07T03:47:59.481Z,22.57
2019-04-07T03:50:35.386Z,24.50
2019-04-07T03:53:12.475Z,20.80
2019-04-07T03:55:45.917Z,24.03
2019-04-07T03:58:32.834Z,24.13
2019-04-07T04:01:08.178Z,23.53
2019-04-07T04:03:41.407Z,25.37
2019-04-07T04:06:12.746Z,23.97
2019-04-07T04:08:43.384Z,24.47
2019-04-07T04:11:14.179Z,24.53
2019-04-07T04:14:01.518Z,25.88
2019-04-07T04:16:31.984Z,24.73
2019-04-07T04:19:00.647Z,23.50
2019-04-07T04:21:29.206Z,24.87
2019-04-07T04:23:57.895Z,23.90
2019-04-07T04:26:28.938Z,26.03
2019-04-07T04:28:58.312Z,25.10
2019-04-07T04:31:27.457Z,24.93
2019-04-07T04:33:56.023Z,24.00
2019-04-07T04:36:25.302Z,24.00
2019-04-07T04:38:54.142Z,23.80
2019-04-07T04:41:23.123Z,24.93
2019-04-07T04:43:51.947Z,26.50
2019-04-07T04:46:20.506Z,23.90
2019-04-07T04:48:49.444Z,24.23
2019-04-07T04:51:18.237Z,25.33
2019-04-07T04:53:47.578Z,25.67
2019-04-07T04:56:17.220Z,24.30
2019-04-07T04:58:47.754Z,24.83
2019-04-07T05:01:16.413Z,25.37
2019-04-07T05:03:44.992Z,22.87
2019-04-07T05:06:14.381Z,25.60
2019-04-07T05:08:43.292Z,27.57
2019-04-07T05:11:12.414Z,22.23
2019-04-07T05:13:41.209Z,27.85
2019-04-07T05:16:10.562Z,26.13
2019-04-07T05:18:39.204Z,24.40
2019-04-07T05:21:08.536Z,24.87
2019-04-07T05:23:37.289Z,25.27
2019-04-07T05:26:05.927Z,26.60
2019-04-07T05:28:36.911Z,25.27
2019-04-07T05:31:05.621Z,26.20
2019-04-07T05:33:34.547Z,24.27
2019-04-07T05:36:03.743Z,25.87
2019-04-07T05:38:32.358Z,24.40
2019-04-07T05:41:00.957Z,27.87
2019-04-07T05:43:29.618Z,26.30
2019-04-07T05:45:59.167Z,29.13
2019-04-07T05:48:28.016Z,27.20
2019-04-07T05:50:59.928Z,35.15
2019-04-07T05:53:27.751Z,29.33
2019-04-07T05:55:56.433Z,31.83
2019-04-07T05:58:25.111Z,30.70
2019-04-07T06:00:54.649Z,32.00
2019-04-07T06:03:23.393Z,31.33
2019-04-07T06:05:51.965Z,29.97
2019-04-07T06:08:27.731Z,27.37
2019-04-07T06:10:51.085Z,31.63
2019-04-07T06:13:19.977Z,27.03
2019-04-07T06:15:49.349Z,28.60
2019-04-07T06:18:19.446Z,27.00
2019-04-07T06:20:48.536Z,28.10
2019-04-07T06:23:17.778Z,30.00
2019-04-07T06:25:46.435Z,30.27
2019-04-07T06:28:17.231Z,31.60
2019-04-07T06:30:45.336Z,29.80
2019-04-07T06:33:13.996Z,31.33
2019-04-07T06:35:44.970Z,30.77
2019-04-07T06:38:13.265Z,30.47
2019-04-07T06:40:41.955Z,28.63
2019-04-07T06:43:10.565Z,30.20
2019-04-07T06:45:57.364Z,31.97
2019-04-07T06:48:26.701Z,28.77
2019-04-07T06:51:13.973Z,28.47
2019-04-07T06:54:01.157Z,31.60
2019-04-07T06:56:38.071Z,30.90
2019-04-07T06:59:11.867Z,29.23
2019-04-07T07:01:47.589Z,29.57
2019-04-07T07:04:34.154Z,29.50
2019-04-07T07:07:06.269Z,29.97
2019-04-07T07:09:54.804Z,32.10
2019-04-07T07:12:31.341Z,31.83
2019-04-07T07:15:08.105Z,30.13
2019-04-07T07:17:38.395Z,37.40
2019-04-07T07:20:28.645Z,29.07
2019-04-07T07:23:00.693Z,31.13
2019-04-07T07:25:31.896Z,34.03
2019-04-07T07:28:00.004Z,32.73
2019-04-07T07:30:29.868Z,31.70
2019-04-07T07:32:58.513Z,30.33
2019-04-07T07:35:27.306Z,31.33
2019-04-07T07:37:58.406Z,30.23
2019-04-07T07:40:26.436Z,27.60
2019-04-07T07:42:56.696Z,29.63
2019-04-07T07:45:25.299Z,28.03
2019-04-07T07:47:54.867Z,35.10
2019-04-07T07:50:24.466Z,49.07
2019-04-07T07:52:54.726Z,30.83
2019-04-07T07:55:23.403Z,26.70
2019-04-07T07:57:56.803Z,28.27
2019-04-07T08:00:22.370Z,26.03
2019-04-07T08:02:52.570Z,28.93
2019-04-07T08:05:21.522Z,28.67
2019-04-07T08:07:50.535Z,27.70
2019-04-07T08:10:20.252Z,27.57
2019-04-07T08:12:49.646Z,26.53
2019-04-07T08:15:23.513Z,27.10
2019-04-07T08:17:48.627Z,25.10
2019-04-07T08:20:17.460Z,29.67
2019-04-07T08:22:46.217Z,25.63
2019-04-07T08:25:15.344Z,25.23
2019-04-07T08:27:44.169Z,28.30
2019-04-07T08:30:13.879Z,24.77
2019-04-07T08:32:43.195Z,24.67
2019-04-07T08:35:12.078Z,25.80
2019-04-07T08:37:40.647Z,21.80
2019-04-07T08:40:09.838Z,22.50
2019-04-07T08:42:39.134Z,23.57
2019-04-07T08:45:09.362Z,32.93
2019-04-07T08:47:38.168Z,22.80
2019-04-07T08:50:08.552Z,21.60
2019-04-07T08:52:40.788Z,26.67
2019-04-07T08:55:07.882Z,22.60
2019-04-07T08:57:37.968Z,19.07
2019-04-07T09:00:13.165Z,20.13
2019-04-07T09:02:39.851Z,18.60
2019-04-07T09:05:08.643Z,21.17
2019-04-07T09:07:37.916Z,20.00
2019-04-07T09:10:09.207Z,18.73
2019-04-07T09:12:37.857Z,18.30
2019-04-07T09:15:11.562Z,18.73
2019-04-07T09:17:47.442Z,20.97
2019-04-07T09:20:23.923Z,19.23
2019-04-07T09:22:57.261Z,16.13
2019-04-07T09:25:37.851Z,18.40
2019-04-07T09:28:06.432Z,23.20
2019-04-07T09:30:36.794Z,17.37
2019-04-07T09:33:19.188Z,16.27
2019-04-07T09:35:49.757Z,16.27
2019-04-07T09:38:24.895Z,17.47
2019-04-07T09:40:54.776Z,17.27
2019-04-07T09:43:43.924Z,17.27
2019-04-07T09:46:31.137Z,15.70
2019-04-07T09:49:02.009Z,16.40
2019-04-07T09:51:50.356Z,19.23
2019-04-07T09:54:26.762Z,14.67
2019-04-07T09:57:07.168Z,13.80
2019-04-07T09:59:40.240Z,14.60
2019-04-07T10:02:16.706Z,14.90
2019-04-07T10:04:59.116Z,15.23
2019-04-07T10:07:29.542Z,14.27
2019-04-07T10:10:14.439Z,13.73
2019-04-07T10:12:46.868Z,13.57
2019-04-07T10:15:17.713Z,14.07
2019-04-07T10:17:53.797Z,13.33
2019-04-07T10:20:24.197Z,13.70
2019-04-07T10:22:55.259Z,13.53
2019-04-07T10:25:27.999Z,15.27
2019-04-07T10:27:57.811Z,13.40
2019-04-07T10:30:28.044Z,12.77
2019-04-07T10:32:58.447Z,14.83
2019-04-07T10:35:29.566Z,15.47
2019-04-07T10:38:00.707Z,14.00
2019-04-07T10:40:47.415Z,14.90
2019-04-07T10:43:34.927Z,15.30
2019-04-07T10:46:08.414Z,14.07
2019-04-07T10:48:38.623Z,12.77
2019-04-07T10:51:21.131Z,13.67
2019-04-07T10:54:03.839Z,14.27
2019-04-07T10:56:46.097Z,12.50
2019-04-07T10:59:16.365Z,14.17
2019-04-07T11:01:53.420Z,16.23
2019-04-07T11:04:26.265Z,14.73
2019-04-07T11:07:02.999Z,13.97
2019-04-07T11:09:34.337Z,15.07
2019-04-07T11:12:23.228Z,14.30
2019-04-07T11:14:57.047Z,13.60
2019-04-07T11:17:30.641Z,13.63
2019-04-07T11:20:03.885Z,13.70
2019-04-07T11:22:50.659Z,13.00
2019-04-07T11:25:37.165Z,14.03
2019-04-07T11:28:22.584Z,13.63
2019-04-07T11:30:53.004Z,14.47
2019-04-07T11:33:23.247Z,13.40
2019-04-07T11:36:10.640Z,13.77
2019-04-07T11:38:40.989Z,15.68
2019-04-07T11:41:28.773Z,14.17
2019-04-07T11:43:59.312Z,13.90
2019-04-07T11:46:32.992Z,13.53
2019-04-07T11:49:13.417Z,12.60
2019-04-07T11:51:55.620Z,13.53
2019-04-07T11:54:28.559Z,14.07
2019-04-07T11:57:05.446Z,12.90
2019-04-07T11:59:44.756Z,14.30
2019-04-07T12:02:19.821Z,13.03
2019-04-07T12:04:56.111Z,12.77
2019-04-07T12:07:26.333Z,12.80
2019-04-07T12:10:14.161Z,12.40
2019-04-07T12:13:00.635Z,11.80
2019-04-07T12:15:34.746Z,13.23
2019-04-07T12:18:08.482Z,13.10
2019-04-07T12:20:39.702Z,13.70
2019-04-07T12:23:10.376Z,12.70
2019-04-07T12:25:47.169Z,13.83
2019-04-07T12:28:19.102Z,13.20
2019-04-07T12:30:58.875Z,12.73
2019-04-07T12:33:29.599Z,14.00
2019-04-07T12:36:03.259Z,13.40
2019-04-07T12:38:52.266Z,13.73
2019-04-07T12:41:39.093Z,12.90
2019-04-07T12:44:09.355Z,13.90
2019-04-07T12:46:46.422Z,14.27
2019-04-07T12:49:20.815Z,13.50
2019-04-07T12:51:54.342Z,14.30
2019-04-07T12:54:43.669Z,14.27
2019-04-07T12:57:13.282Z,13.97
2019-04-07T12:59:47.661Z,15.27
2019-04-07T13:02:17.933Z,14.37
2019-04-07T13:04:59.736Z,14.20
2019-04-07T13:07:34.650Z,14.00
2019-04-07T13:10:08.577Z,14.27
2019-04-07T13:12:57.211Z,13.03
2019-04-07T13:15:35.775Z,14.47
2019-04-07T13:18:18.804Z,13.33
2019-04-07T13:21:05.445Z,13.37
2019-04-07T13:23:44.971Z,13.35
2019-04-07T13:26:24.126Z,14.67
2019-04-07T13:29:05.321Z,12.87
2019-04-07T13:31:36.306Z,12.27
2019-04-07T13:34:18.866Z,12.20
2019-04-07T13:37:04.614Z,12.63
2019-04-07T13:39:45.237Z,11.43
2019-04-07T13:42:16.522Z,12.73
2019-04-07T13:44:52.687Z,11.80
2019-04-07T13:47:38.676Z,11.27
2019-04-07T13:50:16.363Z,10.50
2019-04-07T13:52:53.165Z,12.17
2019-04-07T13:55:32.279Z,12.23
2019-04-07T13:58:08.568Z,11.40
2019-04-07T14:00:45.304Z,12.63
2019-04-07T14:03:24.109Z,12.77
2019-04-07T14:05:54.630Z,12.20
2019-04-07T14:08:27.017Z,12.23
2019-04-07T14:11:08.454Z,12.07
2019-04-07T14:13:54.677Z,11.23
2019-04-07T14:16:31.261Z,11.67
2019-04-07T14:19:13.850Z,11.27
2019-04-07T14:21:53.399Z,12.07
2019-04-07T14:24:27.103Z,11.73
2019-04-07T14:26:57.761Z,11.73
2019-04-07T14:29:31.605Z,11.47
2019-04-07T14:32:07.410Z,11.30
2019-04-07T14:34:41.279Z,12.10
2019-04-07T14:37:15.245Z,11.67
2019-04-07T14:39:45.625Z,10.93
2019-04-07T14:42:15.818Z,11.43
2019-04-07T14:44:46.753Z,11.03
2019-04-07T14:47:26.156Z,10.13
2019-04-07T14:49:59.157Z,10.67
2019-04-07T14:52:29.372Z,10.10
2019-04-07T14:55:08.543Z,10.73
2019-04-07T14:57:55.317Z,9.37
2019-04-07T15:00:42.841Z,10.93
2019-04-07T15:03:11.461Z,9.73
2019-04-07T15:05:45.080Z,10.07
2019-04-07T15:08:30.326Z,10.30
2019-04-07T15:11:02.604Z,10.33
2019-04-07T15:13:32.165Z,9.77
2019-04-07T15:16:00.802Z,10.97
2019-04-07T15:18:29.796Z,10.47
2019-04-07T15:20:59.311Z,9.80
2019-04-07T15:23:30.964Z,10.37
2019-04-07T15:25:59.045Z,10.03
2019-04-07T15:28:31.459Z,9.40
2019-04-07T15:30:58.802Z,9.47
2019-04-07T15:33:31.469Z,9.20
2019-04-07T15:35:58.838Z,8.63
2019-04-07T15:38:28.501Z,8.77
2019-04-07T15:40:58.914Z,9.30
2019-04-07T15:43:27.921Z,9.60
2019-04-07T15:45:56.860Z,8.57
2019-04-07T15:48:26.854Z,10.03
2019-04-07T15:50:56.198Z,9.53
2019-04-07T15:53:25.573Z,9.60
2019-04-07T15:56:02.036Z,9.50
2019-04-07T15:58:26.750Z,9.73
2019-04-07T16:00:54.910Z,10.40
2019-04-07T16:03:23.489Z,10.50
2019-04-07T16:05:52.361Z,10.18
2019-04-07T16:08:21.045Z,10.30
2019-04-07T16:10:52.045Z,10.03
2019-04-07T16:13:20.167Z,9.27
2019-04-07T16:15:52.889Z,10.67
2019-04-07T16:18:20.035Z,10.57
2019-04-07T16:20:49.499Z,10.20
2019-04-07T16:23:19.337Z,8.73
2019-04-07T16:25:48.116Z,10.30
2019-04-07T16:28:16.686Z,9.70
2019-04-07T16:30:48.569Z,9.33
2019-04-07T16:33:16.259Z,11.70
2019-04-07T16:35:51.128Z,11.00
2019-04-07T16:38:16.287Z,10.67
2019-04-07T16:40:45.062Z,9.93
2019-04-07T16:43:16.296Z,9.50
2019-04-07T16:45:44.964Z,9.10
2019-04-07T16:48:14.223Z,9.37
2019-04-07T16:50:42.810Z,11.30
2019-04-07T16:53:11.848Z,9.30
2019-04-07T16:55:46.588Z,9.93
2019-04-07T16:58:14.264Z,12.57
2019-04-07T17:00:43.151Z,10.83
2019-04-07T17:03:11.990Z,9.80
2019-04-07T17:05:40.785Z,10.43
2019-04-07T17:08:09.538Z,11.17
2019-04-07T17:10:39.231Z,11.87
2019-04-07T17:13:16.856Z,11.60
2019-04-07T17:15:40.686Z,10.63
2019-04-07T17:18:10.546Z,9.23
2019-04-07T17:20:39.285Z,10.70
2019-04-07T17:23:07.871Z,10.90
2019-04-07T17:25:36.494Z,11.57
2019-04-07T17:28:06.414Z,10.47
2019-04-07T17:30:38.030Z,10.07
2019-04-07T17:33:06.591Z,11.73
2019-04-07T17:35:35.761Z,11.10
2019-04-07T17:38:06.905Z,11.10
2019-04-07T17:40:37.732Z,11.67
2019-04-07T17:43:25.709Z,12.17
2019-04-07T17:45:52.110Z,12.13
2019-04-07T17:48:44.018Z,11.03
2019-04-07T17:51:27.536Z,10.87
2019-04-07T17:54:17.406Z,10.23
2019-04-07T17:56:46.280Z,12.55
2019-04-07T17:59:22.473Z,40.23
2019-04-07T18:01:59.099Z,27.47
2019-04-07T18:04:42.907Z,23.30
2019-04-07T18:07:35.794Z,17.67
2019-04-07T18:10:13.529Z,15.67
2019-04-07T18:13:02.062Z,14.90
2019-04-07T18:15:36.263Z,14.37
2019-04-07T18:18:14.443Z,16.83
2019-04-07T18:21:02.184Z,13.70
2019-04-07T18:23:37.973Z,14.07
2019-04-07T18:26:16.575Z,16.90
2019-04-07T18:29:05.855Z,17.67
2019-04-07T18:31:56.496Z,18.67
2019-04-07T18:34:27.433Z,18.10
2019-04-07T18:37:12.949Z,17.17
2019-04-07T18:39:44.407Z,14.90
2019-04-07T18:42:17.734Z,13.00
2019-04-07T18:44:47.504Z,12.20
2019-04-07T18:47:23.332Z,12.00
2019-04-07T18:50:07.601Z,11.83
2019-04-07T18:52:56.872Z,11.50
2019-04-07T18:55:27.303Z,11.50
2019-04-07T18:58:01.820Z,12.70
2019-04-07T19:00:48.261Z,12.73
2019-04-07T19:03:31.241Z,12.10
2019-04-07T19:06:08.597Z,12.50
2019-04-07T19:08:44.129Z,13.40
2019-04-07T19:11:19.046Z,14.10
2019-04-07T19:14:04.582Z,14.30
2019-04-07T19:16:22.061Z,15.17
2019-04-07T19:19:10.634Z,14.87
2019-04-07T19:21:57.311Z,13.87
2019-04-07T19:24:34.392Z,14.60
2019-04-07T19:27:17.601Z,14.57
2019-04-07T19:29:45.858Z,12.87
2019-04-07T19:32:20.910Z,14.07
2019-04-07T19:35:06.414Z,14.40
2019-04-07T19:37:40.074Z,12.83
2019-04-07T19:40:29.942Z,12.60
2019-04-07T19:43:03.795Z,13.20
2019-04-07T19:45:37.164Z,13.27
2019-04-07T19:48:27.222Z,14.83
2019-04-07T19:51:06.845Z,13.30
2019-04-07T19:53:43.269Z,12.73
2019-04-07T19:56:31.379Z,12.23
2019-04-07T19:59:17.423Z,11.60
2019-04-07T20:01:50.682Z,11.70
2019-04-07T20:04:36.139Z,12.77
2019-04-07T20:07:09.558Z,12.93
2019-04-07T20:09:45.362Z,13.23
2019-04-07T20:12:14.871Z,13.40
2019-04-07T20:15:00.561Z,13.20
2019-04-07T20:17:41.011Z,14.17
2019-04-07T20:20:17.699Z,13.20
2019-04-07T20:22:56.041Z,12.60
2019-04-07T20:25:45.640Z,14.00
2019-04-07T20:28:32.588Z,13.13
2019-04-07T20:31:03.784Z,13.90
2019-04-07T20:33:34.455Z,15.00
2019-04-07T20:36:08.748Z,14.10
2019-04-07T20:38:40.156Z,15.43
2019-04-07T20:41:15.695Z,14.93
2019-04-07T20:43:46.336Z,15.07
2019-04-07T20:46:23.966Z,14.70
2019-04-07T20:49:06.511Z,14.77
2019-04-07T20:51:35.427Z,15.00
2019-04-07T20:54:22.243Z,15.63
2019-04-07T20:56:52.518Z,15.47
2019-04-07T20:59:26.481Z,15.05
2019-04-07T21:02:06.723Z,14.97
2019-04-07T21:04:51.458Z,15.10
2019-04-07T21:07:28.998Z,14.43
2019-04-07T21:10:05.888Z,15.63
2019-04-07T21:12:34.786Z,15.60
2019-04-07T21:15:18.267Z,15.30
2019-04-07T21:17:46.458Z,15.73
2019-04-07T21:20:34.195Z,15.67
2019-04-07T21:23:23.285Z,16.37
2019-04-07T21:25:57.263Z,14.57
2019-04-07T21:28:44.648Z,15.73
2019-04-07T21:31:21.328Z,15.77
2019-04-07T21:33:53.219Z,15.80
2019-04-07T21:36:30.027Z,17.02
2019-04-07T21:39:03.121Z,17.30
2019-04-07T21:41:43.962Z,16.57
2019-04-07T21:44:27.040Z,15.93
2019-04-07T21:47:11.934Z,15.70
2019-04-07T21:49:47.684Z,15.23
2019-04-07T21:52:21.007Z,16.87
2019-04-07T21:55:01.985Z,16.07
2019-04-07T21:57:32.345Z,16.63
2019-04-07T22:00:18.829Z,17.90
2019-04-07T22:02:55.447Z,17.13
2019-04-07T22:05:37.495Z,18.90
2019-04-07T22:08:15.524Z,18.43
2019-04-07T22:10:41.583Z,18.13
2019-04-07T22:13:10.234Z,18.27
2019-04-07T22:15:45.804Z,18.97
2019-04-07T22:18:09.936Z,17.93
2019-04-07T22:20:39.094Z,17.40
2019-04-07T22:23:09.366Z,18.03
2019-04-07T22:25:50.492Z,18.23
2019-04-07T22:28:19.390Z,18.13
2019-04-07T22:30:49.471Z,17.90
2019-04-07T22:33:23.792Z,17.90
2019-04-07T22:35:49.098Z,17.33
2019-04-07T22:38:21.960Z,15.77
2019-04-07T22:40:48.093Z,17.07
2019-04-07T22:43:18.645Z,14.57
2019-04-07T22:45:54.962Z,16.07
2019-04-07T22:48:18.441Z,15.60
2019-04-07T22:50:47.533Z,16.83
2019-04-07T22:53:21.191Z,15.83
2019-04-07T22:55:55.190Z,16.52
2019-04-07T22:58:24.270Z,15.27
2019-04-07T23:00:54.286Z,15.40
2019-04-07T23:03:22.866Z,15.40
2019-04-07T23:05:51.618Z,15.30
2019-04-07T23:08:20.867Z,15.48
2019-04-07T23:10:50.822Z,15.70
2019-04-07T23:13:19.674Z,16.53
2019-04-07T23:15:48.581Z,15.73
2019-04-07T23:18:17.889Z,15.77
2019-04-07T23:20:46.473Z,15.77
2019-04-07T23:23:15.074Z,15.17
2019-04-07T23:25:44.059Z,15.80
2019-04-07T23:28:12.992Z,15.23
2019-04-07T23:30:41.533Z,14.30
2019-04-07T23:33:10.542Z,14.40
2019-04-07T23:35:39.307Z,15.23
2019-04-07T23:38:08.044Z,14.83
2019-04-07T23:40:36.622Z,14.33
2019-04-07T23:43:05.297Z,16.00
2019-04-07T23:45:33.842Z,14.40
2019-04-07T23:48:02.442Z,15.13
2019-04-07T23:50:31.531Z,15.83
2019-04-07T23:53:03.580Z,14.93
2019-04-07T23:55:32.225Z,15.10
2019-04-07T23:58:00.838Z,16.47
